Aviation Digital Data Service (ADDS)

Output produced by METARs form (2333 UTC 23 May 2022)
found at http://www.aviationweather.gov/metar/data/
 
TAF EGYP 232239Z 2400/2418 29014KT 9999 FEW030